Guaynabo, PR

1:02 AM AST on October 21, 2014 (GMT -0400)
Reparto Metropolitano | Change Station
CLOSE
Current Station
Personal Weather Station
Location: San Juan, PR
Elevation: 36 ft
Nearby Weather Stations

Elev 36 ft 18.40 °N, 66.08 °W | Updated 17 seconds ago

Scattered Clouds
Scattered Clouds
79.2 °F
Feels Like 77 °F
N
0.0
Wind Variable Wind from SE
Gusts 0.0 mph

Today
High -- | Low -- °F
--% Chance of Precip.
Yesterday
High -- | Low -- °F
Precip. -- in
6:19 AM 5:57 PM
Waning Crescent, 7% visible
Pressure 29.95 in
Visibility 10.0 miles
Clouds Few 2700 ft
Scattered Clouds 6000 ft
Heat Index 77 °F
Dew Point Not available.
Humidity Not available.
Rainfall 0.00 in
Snow Depth Not available.
UV 0.0 out of 12
Pollen Not available.
Air Quality Not available.
Flu Activity Local Activity
METAR TJSJ 210456Z 00000KT 10SM FEW027 SCT060 27/23 A2995 RMK AO2 SLP142 T02670233

More Conditions Fewer Conditions

Pressure 29.95 in
Visibility 10.0 miles
Clouds Few 2700 ft
Scattered Clouds 6000 ft
Heat Index 77 °F
Dew Point Not available.
Humidity Not available.
Rainfall 0.00 in
Snow Depth Not available.
UV 0.0 out of 12
Pollen Not available.
Air Quality Not available.
Flu Activity Local Activity
METAR TJSJ 210456Z 00000KT 10SM FEW027 SCT060 27/23 A2995 RMK AO2 SLP142 T02670233

More Conditions Fewer Conditions

10-Day Weather Forecast

Almanac

Astronomy

Oct. 21, 2014 Rise Set
Actual Time 6:19 AM AST 5:57 PM AST
Civil Twilight 5:57 AM AST 6:20 PM AST
Nautical Twilight 5:32 AM AST 6:45 PM AST
Astronomical Twilight 5:06 AM AST 7:11 PM AST
Moon 4:19 AM AST 4:34 PM AST
Length of Visible Light 12h 22m
Length of Day
11h 37m
Tomorrow will be 0m 59s shorter.
Waning Crescent, 7% of the Moon is Illuminated
Today
Waning Crescent
Oct 23
New
Oct 30
First Quarter
Nov 6
Full
Nov 14
Last Quarter

Community

WunderPhotos

Upload Photos

1,763,612 photos uploaded!

Nearby

Snow Depth

Station Depth Elevation
No new snow has been reported.

Earthquake Activity

City Distance Mag. Time & Date
No recent earthquake activity has been reported nearby.
Minimum magnitude displayed is 2.5.

Coastal Water Temperatures

Place Temperature
San Juan, PR 87.1 °F
Mayaguez, PR 84.9 °F
Esperanza, PR 84.9 °F

Nearby Weather Stations